Terminal Aerodrome Forecast
Issued by NWS

Home | Current Version | Previous Version | Text Only | Print | Product List | Glossary On
Versions: 1 2 3 4 5 6 7 8 9 10 11 12 13 14 15 16 17 18 19 20 21
392
FTUS46 KSEW 121749
TAFOLM
TAF
KOLM 121749Z 1218/1318 20008KT P6SM VCSH SCT014 BKN025
     FM122000 21008KT P6SM VCSH SCT020 BKN035
     FM130800 20007KT 5SM -RA BR SCT008 OVC012
     FM131500 20008KT P6SM VCSH SCT012 BKN020 OVC030=

USA.gov is the U.S. government's official web portal to all federal, state and local government web resources and services.